• Join FlightAware (Why Join?)
  • Login
  • US Flag 
08:13PM EDT


 

Airport Tracker/Info


-or-


 

Live Flight TrackerFlight Track Log ✈ N569TA ✈ 03-May-2013 ✈ KPTK - KAIK

Flight Track Log - Related Links

Times and Time Zones

All times are in EDT time to prevent confusion due to time zone crossing. See the N569TA flight status page for this flight to view local times or setup timezone preferences in your user account.

Time Position Orientation Groundspeed Altitude Reporting Facility
EDT Latitude Longitude Course Direction KTS MPH feet Rate Location/Type
11:39AM 42.6744 -83.2803 84° East 257 296 4,900  Level Cleveland Center
11:40AM 42.6772 -83.1672 88° East 273 314 7,900 2,820 Climbing Cleveland Center
11:41AM 42.6414 -83.0839 120° Southeast 279 321 11,000 2,580 Climbing Cleveland Center
11:42AM 42.5681 -83.0981 188° South 214 246 13,200 2,100 Climbing Cleveland Center
11:43AM 42.4922 -83.1344 199° South 229 264 15,200 1,980 Climbing Cleveland Center
11:44AM 42.4164 -83.1736 201° Southwest 265 305 17,200 1,680 Climbing Cleveland Center
11:45AM 42.3453 -83.1875 188° South 284 327 18,600 1,740 Climbing Cleveland Center
11:46AM 42.2622 -83.1728 173° South 294 338 20,700 2,040 Climbing Cleveland Center
11:47AM 42.1814 -83.1556 171° South 294 338 22,700 1,980 Climbing Cleveland Center
11:48AM 42.1003 -83.1383 171° South 294 338 24,700 1,920 Climbing Cleveland Center
11:49AM 42.0214 -83.1239 172° South 294 338 26,600 1,800 Climbing Cleveland Center
11:50AM 41.9406 -83.1067 171° South 294 338 28,300 1,680 Climbing Cleveland Center
11:51AM 41.8617 -83.0925 172° South 294 338 30,000 1,680 Climbing Cleveland Center
11:52AM 41.7806 -83.0781 172° South 294 338 31,700 1,380 Climbing Cleveland Center
11:53AM 41.6997 -83.0639 173° South 294 338 32,800 900 Climbing Cleveland Center
11:54AM 41.6167 -83.0467 171° South 294 338 33,600 960 Climbing Cleveland Center
11:55AM 41.5275 -83.0267 170° South 315 362 34,800 1,140 Climbing Cleveland Center
11:56AM 41.4400 -83.0125 173° South 321 369 35,900 1,140 Climbing Cleveland Center
11:57AM 41.3528 -82.9953 172° South 321 369 37,100 1,140 Climbing Cleveland Center
11:58AM 41.2614 -82.9781 172° South 316 364 38,200 1,080 Climbing Cleveland Center
11:59AM 41.1783 -82.9639 173° South 310 357 39,300 1,080 Climbing Cleveland Center
12:00PM 41.0994 -82.9500 172° South 305 351 40,400 660 Climbing Cleveland Center
12:01PM 41.0164 -82.9333 171° South 294 338 40,700 300 Climbing Cleveland Center
12:02PM 40.9333 -82.9167 171° South 294 338 41,000 120 Climbing Cleveland Center
12:03PM 40.8442 -82.8997 172° South 307 353 41,000 -60 Level Cleveland Center
12:04PM 40.7547 -82.8828 172° South 325 374 40,900  Descending Cleveland Center
12:06PM 40.5744 -82.8492 172° South 357 411 41,000  Climbing Indianapolis Center
12:07PM 40.4728 -82.8297 172° South 369 425 40,900  Descending Indianapolis Center
12:08PM 40.3681 -82.8119 173° South 372 428 41,100  Climbing Indianapolis Center
12:09PM 40.2639 -82.7914 171° South 374 430 41,000 -60 Descending Indianapolis Center
12:10PM 40.1586 -82.7731 172° South 376 433 41,000  Level Indianapolis Center
12:11PM 40.0536 -82.7531 172° South 376 433 41,000  Level Indianapolis Center
12:12PM 39.9464 -82.7336 172° South 382 440 41,000  Level Indianapolis Center
12:13PM 39.8394 -82.7144 172° South 383 441 41,000  Level Indianapolis Center
12:14PM 39.7161 -82.6922 172° South 380 437 41,000  Level Indianapolis Center
12:15PM 39.6097 -82.6728 172° South 380 437 41,000  Level Indianapolis Center
12:16PM 39.5031 -82.6547 173° South 381 438 41,000  Level Indianapolis Center
12:17PM 39.3961 -82.6353 172° South 383 441 41,000  Level Indianapolis Center
12:18PM 39.2894 -82.6206 174° South 380 437 41,000  Level Indianapolis Center
12:19PM 39.1728 -82.6136 177° South 378 435 41,000  Level Indianapolis Center
12:20PM 39.0675 -82.6072 177° South 380 437 41,000  Level Indianapolis Center
12:21PM 38.9625 -82.6019 178° South 379 436 41,000  Level Indianapolis Center
12:22PM 38.8558 -82.5964 178° South 384 442 41,000  Level Indianapolis Center
12:23PM 38.7497 -82.5908 178° South 384 442 41,000  Level Indianapolis Center
12:24PM 38.6256 -82.5761 175° South 388 447 41,000  Level Indianapolis Center
12:25PM 38.5214 -82.5506 169° South 382 440 41,000  Level Indianapolis Center
12:26PM 38.4142 -82.5339 173° South 384 442 41,000  Level Indianapolis Center
12:27PM 38.3072 -82.5139 172° South 386 444 41,000  Level Indianapolis Center
12:28PM 38.1997 -82.4928 171° South 386 444 41,000  Level Indianapolis Center
12:29PM 38.0928 -82.4733 172° South 389 448 41,000  Level Indianapolis Center
12:30PM 37.9692 -82.4508 172° South 386 444 41,000  Level Indianapolis Center
12:32PM 37.8631 -82.4314 172° South 384 442 41,000  Level Indianapolis Center
12:33PM 37.7547 -82.4086 171° South 389 448 41,000  Level Indianapolis Center
12:34PM 37.6472 -82.3900 172° South 386 444 41,000  Level Indianapolis Center
12:35PM 37.5417 -82.3719 172° South 382 440 41,000  Level Indianapolis Center
12:36PM 37.4367 -82.3514 171° South 379 436 41,000  Level Indianapolis Center
12:37PM 37.3328 -82.3319 172° South 379 436 41,000  Level Atlanta Center
12:38PM 37.2264 -82.3133 172° South 384 442 41,000  Level Atlanta Center
12:39PM 37.1197 -82.2922 171° South 390 449 41,000  Level Atlanta Center
12:40PM 37.0258 -82.2761 172° South 390 449 41,000  Level Atlanta Center
12:41PM 36.9211 -82.2578 172° South 390 449 41,000  Level Atlanta Center
12:42PM 36.8167 -82.2367 171° South 390 449 41,000  Level Atlanta Center
12:43PM 36.7142 -82.2208 173° South 384 442 41,000  Level Atlanta Center
12:44PM 36.6097 -82.2000 171° South 384 442 41,000  Level Atlanta Center
12:45PM 36.5031 -82.1792 171° South 384 442 41,000  Level Atlanta Center
12:46PM 36.4028 -82.1633 173° South 379 436 41,000  Level Atlanta Center
12:47PM 36.2961 -82.1453 172° South 379 436 41,000  Level Atlanta Center
12:48PM 36.1872 -82.1272 172° South 374 430 41,000  Level Atlanta Center
12:49PM 36.0806 -82.1092 172° South 376 433 41,000 -240 Level Atlanta Center
12:50PM 35.9781 -82.0911 172° South 376 433 40,600 -1,020 Descending Atlanta Center
12:51PM 35.8694 -82.0681 170° South 382 440 39,000 -1,560 Descending Atlanta Center
12:52PM 35.7647 -82.0528 173° South 388 447 37,500 -1,560 Descending Atlanta Center
12:53PM 35.6622 -82.0322 171° South 388 447 35,900 -1,680 Descending Atlanta Center
12:54PM 35.5619 -82.0169 173° South 388 447 34,200 -1,860 Descending Atlanta Center
12:55PM 35.4633 -81.9989 172° South 371 427 32,200 -1,980 Descending Atlanta Center
12:56PM 35.3608 -81.9811 172° South 371 427 30,300 -1,140 Descending Atlanta Center
12:57PM 35.2606 -81.9633 172° South 371 427 30,000 -180 Descending Atlanta Center
12:58PM 35.1558 -81.9456 172° South 377 434 30,000  Level Atlanta Center
12:59PM 35.0556 -81.9303 173° South 377 434 30,000 -1,080 Level Atlanta Center
01:00PM 34.9550 -81.9100 171° South 370 426 27,900 -2,100 Descending Atlanta Center
01:01PM 34.8650 -81.8944 172° South 370 426 25,900 -2,220 Descending Atlanta Center
01:02PM 34.7686 -81.8794 173° South 370 426 23,500 -2,580 Descending Atlanta Center
01:03PM 34.6744 -81.8617 171° South 359 413 20,800 -2,820 Descending Atlanta Center
01:04PM 34.5719 -81.8414 171° South 349 402 17,900 -2,760 Descending Atlanta Center
01:05PM 34.4903 -81.8261 171° South 329 379 15,300 -2,760 Descending Atlanta Center
01:06PM 34.4128 -81.8131 172° South 299 344 12,400 -1,740 Descending Atlanta Center
01:07PM 34.3136 -81.7989 173° South 270 311 11,000 -600 Descending Jacksonville Center
01:08PM 34.2406 -81.7875 173° South 264 304 10,900 -120 Descending Jacksonville Center
01:10PM 34.1123 -81.7572 176° South  Level FlightAware Approximate
01:17PM 33.6494 -81.6850 180° South  Level Estimated
01:18PM 33.6494 -81.6850 180° South  Level Estimated
01:19PM 33.6494 -81.6850 180° South  Level Estimated
01:20PM 33.6494 -81.6850 180° South  Level Estimated
01:21PM 33.6494 -81.6850 180° South  Level Estimated
01:22PM 33.6494 -81.6850 180° South  Level Estimated
01:23PM 33.6494 -81.6850 180° South  Level Estimated
01:24PM 33.6494 -81.6850 180° South  Level Estimated